Burin Sea — VCXN — position and weather

sailwx.info

Track history (hours):
 
Tides and Currents Weather Stations Pressure Air Temp Water Temp Dewpoint Dewpoint Depression Visibility Wind Speed Wind Dir Waves Ship Positions

Burin Sea

Last reported at 2015-Mar-15 21:09 UTC. Time now 2015-Mar-26 23:47 UTC.
Position N 47°33' W 052°34'.
Warning: this ship's position is 11 days out of date.

Length 82 m; draft 5.4 m.

Type: Tug. MMSI: 316300000.

Date/timePositionNaut miles runAvg speedWind from/ knotsBaromVisibWave heightAir tempDewpointWater temp
2015-Mar-15 21:09N 47°33' W 052°34'6 0.7
2015-Mar-15 13:31N 47°34' W 052°42'0 0.0
2015-Mar-15 11:08N 47°34' W 052°42'0 0.0
2015-Mar-15 09:31N 47°34' W 052°42'0 0.0
2015-Mar-15 07:17N 47°34' W 052°42'0 0.0
2015-Mar-15 06:06N 47°34' W 052°42'0 0.0
2015-Mar-14 17:26N 47°34' W 052°42'2 0.7
2015-Mar-14 14:33N 47°33' W 052°39'2 0.7
2015-Mar-14 11:30N 47°34' W 052°42'0 0.0
2015-Mar-14 10:25N 47°34' W 052°42'0 0.0
2015-Mar-14 09:23N 47°34' W 052°42'0 0.0
2015-Mar-14 08:32N 47°34' W 052°42'0 0.0
2015-Mar-14 07:33N 47°34' W 052°42'0 0.0
2015-Mar-14 06:24N 47°34' W 052°42'0 0.0
2015-Mar-14 05:25N 47°34' W 052°42'0 0.0
2015-Mar-13 17:24N 47°34' W 052°42'0 0.0
2015-Mar-13 16:27N 47°34' W 052°42'0 0.0
2015-Mar-13 15:31N 47°34' W 052°42'0 0.0
2015-Mar-13 14:32N 47°34' W 052°42'0 0.1
2015-Mar-13 13:32N 47°34' W 052°42'0 0.0
2015-Mar-13 12:30N 47°34' W 052°42'0 0.0
2015-Mar-13 11:30N 47°34' W 052°42'0 0.0
2015-Mar-13 10:32N 47°34' W 052°42'0 0.0
2015-Mar-13 09:29N 47°34' W 052°42'0 0.0
2015-Mar-13 08:33N 47°34' W 052°42'0 0.0
2015-Mar-13 07:33N 47°34' W 052°42'0 0.0
2015-Mar-13 06:28N 47°34' W 052°42'0 0.0
2015-Mar-13 05:32N 47°34' W 052°42'0 0.0
2015-Mar-13 04:27N 47°34' W 052°42'0 0.0
2015-Mar-13 03:24N 47°34' W 052°42'0 0.0
2015-Mar-13 02:31N 47°34' W 052°42'0 0.0
2015-Mar-13 01:16N 47°34' W 052°42'0 0.0
2015-Mar-13 00:28N 47°34' W 052°42'0 0.0
2015-Mar-12 23:32N 47°34' W 052°42'0 0.0
2015-Mar-12 22:30N 47°34' W 052°42'0 0.0
2015-Mar-12 21:33N 47°34' W 052°42'6 5.4
2015-Mar-12 20:28N 47°33' W 052°33'3 0.1
2015-Mar-10 20:24N 47°33' W 052°38'3 3.5
2015-Mar-10 19:30N 47°34' W 052°42'0 0.0
2015-Mar-10 18:30N 47°34' W 052°42'0 0.0
2015-Mar-10 17:31N 47°34' W 052°42'0 0.0
2015-Mar-10 16:32N 47°34' W 052°42'0 0.0
2015-Mar-10 15:29N 47°34' W 052°42'0 0.0
2015-Mar-10 14:32N 47°34' W 052°42'0 0.0
2015-Mar-10 13:06N 47°34' W 052°42'0 0.0
2015-Mar-10 12:30N 47°34' W 052°42'0 0.0
2015-Mar-10 11:32N 47°34' W 052°42'0 0.0
2015-Mar-10 10:05N 47°34' W 052°42'0 0.0
2015-Mar-10 09:32N 47°34' W 052°42'0 0.0
2015-Mar-10 08:32N 47°34' W 052°42'0 0.0
2015-Mar-10 07:32N 47°34' W 052°42'0 0.0
2015-Mar-10 06:29N 47°34' W 052°42'0 0.0
2015-Mar-10 05:27N 47°34' W 052°42'0 0.0
2015-Mar-10 04:33N 47°34' W 052°42'0 0.0
2015-Mar-10 03:30N 47°34' W 052°42'0 0.0
2015-Mar-10 02:15N 47°34' W 052°42'0 0.0
2015-Mar-10 01:31N 47°34' W 052°42'0 0.0
2015-Mar-10 00:29N 47°34' W 052°42'0 0.0
2015-Mar-09 23:31N 47°34' W 052°42'0 0.0
2015-Mar-09 22:06N 47°34' W 052°42'0 0.0
2015-Mar-09 21:15N 47°34' W 052°42'0 0.1
2015-Mar-09 18:27N 47°34' W 052°42'0 0.0
2015-Mar-09 17:29N 47°34' W 052°42'0 0.0
2015-Mar-09 16:28N 47°34' W 052°42'0 0.3
2015-Mar-09 15:18N 47°34' W 052°42'0 0.0
2015-Mar-09 14:28N 47°34' W 052°42'0 0.0
2015-Mar-09 13:24N 47°34' W 052°42'0 0.1
2015-Mar-09 12:29N 47°34' W 052°42'0 0.0
2015-Mar-09 11:29N 47°34' W 052°42'0 0.0
2015-Mar-09 10:32N 47°34' W 052°42'0 0.0
2015-Mar-09 09:30N 47°34' W 052°42'0 0.0
2015-Mar-09 08:33N 47°34' W 052°42'0 0.0
2015-Mar-09 07:29N 47°34' W 052°42'0 0.0
2015-Mar-09 06:31N 47°34' W 052°42'0 0.0
2015-Mar-09 05:31N 47°34' W 052°42'0 0.0
2015-Mar-09 04:31N 47°34' W 052°42'0 0.0
2015-Mar-09 03:21N 47°34' W 052°42'0 0.0
2015-Mar-09 02:30N 47°34' W 052°42'0 0.0
2015-Mar-09 01:27N 47°34' W 052°42'0 0.0
2015-Mar-09 00:30N 47°34' W 052°42'0 0.0
2015-Mar-08 23:27N 47°34' W 052°42'0 0.0
2015-Mar-08 22:21N 47°34' W 052°42'0 0.0
2015-Mar-08 21:07N 47°34' W 052°42'0 0.0
2015-Mar-08 19:05N 47°34' W 052°42'0 0.7
2015-Mar-08 18:29N 47°34' W 052°41'2 0.7
2015-Mar-08 16:07N 47°33' W 052°40'1 1.6
2015-Mar-08 15:12N 47°34' W 052°38'3 1.5
2015-Mar-08 13:27N 47°34' W 052°42'0 0.0
2015-Mar-08 10:08N 47°34' W 052°42'3 5.3
2015-Mar-08 09:31N 47°34' W 052°37'1210.0
2015-Mar-08 08:19N 47°29' W 052°21'  
Track history (hours):
 
Tides and Currents Weather Stations Pressure Air Temp Water Temp Dewpoint Dewpoint Depression Visibility Wind Speed Wind Dir Waves Ship Positions

Burin Sea

Last reported at 2015-Mar-15 21:09 UTC. Time now 2015-Mar-26 23:47 UTC.
Position N 47°33' W 052°34'.
Warning: this ship's position is 11 days out of date.

Length 82 m; draft 5.4 m.

Type: Tug. MMSI: 316300000.

Date/timePositionNaut miles runAvg speedWind from/ knotsBaromVisibWave heightAir tempDewpointWater temp
2015-Mar-15 21:09N 47°33' W 052°34'6 0.7
2015-Mar-15 13:31N 47°34' W 052°42'0 0.0
2015-Mar-15 11:08N 47°34' W 052°42'0 0.0
2015-Mar-15 09:31N 47°34' W 052°42'0 0.0
2015-Mar-15 07:17N 47°34' W 052°42'0 0.0
2015-Mar-15 06:06N 47°34' W 052°42'0 0.0
2015-Mar-14 17:26N 47°34' W 052°42'2 0.7
2015-Mar-14 14:33N 47°33' W 052°39'2 0.7
2015-Mar-14 11:30N 47°34' W 052°42'0 0.0
2015-Mar-14 10:25N 47°34' W 052°42'0 0.0
2015-Mar-14 09:23N 47°34' W 052°42'0 0.0
2015-Mar-14 08:32N 47°34' W 052°42'0 0.0
2015-Mar-14 07:33N 47°34' W 052°42'0 0.0
2015-Mar-14 06:24N 47°34' W 052°42'0 0.0
2015-Mar-14 05:25N 47°34' W 052°42'0 0.0
2015-Mar-13 17:24N 47°34' W 052°42'0 0.0
2015-Mar-13 16:27N 47°34' W 052°42'0 0.0
2015-Mar-13 15:31N 47°34' W 052°42'0 0.0
2015-Mar-13 14:32N 47°34' W 052°42'0 0.1
2015-Mar-13 13:32N 47°34' W 052°42'0 0.0
2015-Mar-13 12:30N 47°34' W 052°42'0 0.0
2015-Mar-13 11:30N 47°34' W 052°42'0 0.0
2015-Mar-13 10:32N 47°34' W 052°42'0 0.0
2015-Mar-13 09:29N 47°34' W 052°42'0 0.0
2015-Mar-13 08:33N 47°34' W 052°42'0 0.0
2015-Mar-13 07:33N 47°34' W 052°42'0 0.0
2015-Mar-13 06:28N 47°34' W 052°42'0 0.0
2015-Mar-13 05:32N 47°34' W 052°42'0 0.0
2015-Mar-13 04:27N 47°34' W 052°42'0 0.0
2015-Mar-13 03:24N 47°34' W 052°42'0 0.0
2015-Mar-13 02:31N 47°34' W 052°42'0 0.0
2015-Mar-13 01:16N 47°34' W 052°42'0 0.0
2015-Mar-13 00:28N 47°34' W 052°42'0 0.0
2015-Mar-12 23:32N 47°34' W 052°42'0 0.0
2015-Mar-12 22:30N 47°34' W 052°42'0 0.0
2015-Mar-12 21:33N 47°34' W 052°42'6 5.4
2015-Mar-12 20:28N 47°33' W 052°33'3 0.1
2015-Mar-10 20:24N 47°33' W 052°38'3 3.5
2015-Mar-10 19:30N 47°34' W 052°42'0 0.0
2015-Mar-10 18:30N 47°34' W 052°42'0 0.0
2015-Mar-10 17:31N 47°34' W 052°42'0 0.0
2015-Mar-10 16:32N 47°34' W 052°42'0 0.0
2015-Mar-10 15:29N 47°34' W 052°42'0 0.0
2015-Mar-10 14:32N 47°34' W 052°42'0 0.0
2015-Mar-10 13:06N 47°34' W 052°42'0 0.0
2015-Mar-10 12:30N 47°34' W 052°42'0 0.0
2015-Mar-10 11:32N 47°34' W 052°42'0 0.0
2015-Mar-10 10:05N 47°34' W 052°42'0 0.0
2015-Mar-10 09:32N 47°34' W 052°42'0 0.0
2015-Mar-10 08:32N 47°34' W 052°42'0 0.0
2015-Mar-10 07:32N 47°34' W 052°42'0 0.0
2015-Mar-10 06:29N 47°34' W 052°42'0 0.0
2015-Mar-10 05:27N 47°34' W 052°42'0 0.0
2015-Mar-10 04:33N 47°34' W 052°42'0 0.0
2015-Mar-10 03:30N 47°34' W 052°42'0 0.0
2015-Mar-10 02:15N 47°34' W 052°42'0 0.0
2015-Mar-10 01:31N 47°34' W 052°42'0 0.0
2015-Mar-10 00:29N 47°34' W 052°42'0 0.0
2015-Mar-09 23:31N 47°34' W 052°42'0 0.0
2015-Mar-09 22:06N 47°34' W 052°42'0 0.0
2015-Mar-09 21:15N 47°34' W 052°42'0 0.1
2015-Mar-09 18:27N 47°34' W 052°42'0 0.0
2015-Mar-09 17:29N 47°34' W 052°42'0 0.0
2015-Mar-09 16:28N 47°34' W 052°42'0 0.3
2015-Mar-09 15:18N 47°34' W 052°42'0 0.0
2015-Mar-09 14:28N 47°34' W 052°42'0 0.0
2015-Mar-09 13:24N 47°34' W 052°42'0 0.1
2015-Mar-09 12:29N 47°34' W 052°42'0 0.0
2015-Mar-09 11:29N 47°34' W 052°42'0 0.0
2015-Mar-09 10:32N 47°34' W 052°42'0 0.0
2015-Mar-09 09:30N 47°34' W 052°42'0 0.0
2015-Mar-09 08:33N 47°34' W 052°42'0 0.0
2015-Mar-09 07:29N 47°34' W 052°42'0 0.0
2015-Mar-09 06:31N 47°34' W 052°42'0 0.0
2015-Mar-09 05:31N 47°34' W 052°42'0 0.0
2015-Mar-09 04:31N 47°34' W 052°42'0 0.0
2015-Mar-09 03:21N 47°34' W 052°42'0 0.0
2015-Mar-09 02:30N 47°34' W 052°42'0 0.0
2015-Mar-09 01:27N 47°34' W 052°42'0 0.0
2015-Mar-09 00:30N 47°34' W 052°42'0 0.0
2015-Mar-08 23:27N 47°34' W 052°42'0 0.0
2015-Mar-08 22:21N 47°34' W 052°42'0 0.0
2015-Mar-08 21:07N 47°34' W 052°42'0 0.0
2015-Mar-08 19:05N 47°34' W 052°42'0 0.7
2015-Mar-08 18:29N 47°34' W 052°41'2 0.7
2015-Mar-08 16:07N 47°33' W 052°40'1 1.6
2015-Mar-08 15:12N 47°34' W 052°38'3 1.5
2015-Mar-08 13:27N 47°34' W 052°42'0 0.0
2015-Mar-08 10:08N 47°34' W 052°42'3 5.3
2015-Mar-08 09:31N 47°34' W 052°37'1210.0
2015-Mar-08 08:19N 47°29' W 052°21'  

Dump ship's entire track history